Terminal Aerodrome Forecast
Issued by NWS

Home | Current Version | Previous Version | Text Only | Print | Product List | Glossary On
Versions: 1 2 3 4 5 6 7 8 9 10 11 12 13 14 15 16 17 18 19 20 21 22 23 24 25 26 27 28
000
FTUS41 KBOX 171002 AAB
TAFHYA
TAF AMD
KHYA 171002Z 1710/1806 02012G20KT P6SM OVC045
     FM171300 36011KT P6SM FEW030
     FM172100 27004KT P6SM SKC
     FM180000 21005KT P6SM SKC=

USA.gov is the U.S. government's official web portal to all federal, state and local government web resources and services.